sensor_id;sensor_type;location;lat;lon;timestamp;temperature;humidity
37276;DHT22;23166;51.150;21.620;2022-11-11T00:00:37;5.60;99.90
37276;DHT22;23166;51.150;21.620;2022-11-11T00:03:06;5.60;99.90
37276;DHT22;23166;51.150;21.620;2022-11-11T00:05:32;5.60;99.90
37276;DHT22;23166;51.150;21.620;2022-11-11T00:07:59;5.60;99.90
37276;DHT22;23166;51.150;21.620;2022-11-11T00:10:26;5.50;99.90
37276;DHT22;23166;51.150;21.620;2022-11-11T00:12:53;5.50;99.90
37276;DHT22;23166;51.150;21.620;2022-11-11T00:15:19;5.40;99.90
37276;DHT22;23166;51.150;21.620;2022-11-11T00:17:46;5.30;99.90
37276;DHT22;23166;51.150;21.620;2022-11-11T00:20:30;5.30;99.90
37276;DHT22;23166;51.150;21.620;2022-11-11T00:23:20;5.20;99.90
37276;DHT22;23166;51.150;21.620;2022-11-11T00:26:06;5.10;99.90
37276;DHT22;23166;51.150;21.620;2022-11-11T00:28:33;5.00;99.90
37276;DHT22;23166;51.150;21.620;2022-11-11T00:31:01;4.90;99.90
37276;DHT22;23166;51.150;21.620;2022-11-11T00:33:28;4.80;99.90
37276;DHT22;23166;51.150;21.620;2022-11-11T00:35:54;4.80;99.90
37276;DHT22;23166;51.150;21.620;2022-11-11T00:38:21;4.80;99.90
37276;DHT22;23166;51.150;21.620;2022-11-11T00:41:05;4.80;99.90
37276;DHT22;23166;51.150;21.620;2022-11-11T00:43:32;4.80;99.90
37276;DHT22;23166;51.150;21.620;2022-11-11T00:45:58;4.80;99.90
37276;DHT22;23166;51.150;21.620;2022-11-11T00:48:43;4.80;99.90
37276;DHT22;23166;51.150;21.620;2022-11-11T00:51:28;4.80;99.90
37276;DHT22;23166;51.150;21.620;2022-11-11T00:53:54;4.90;99.90
37276;DHT22;23166;51.150;21.620;2022-11-11T00:56:22;4.90;99.90
37276;DHT22;23166;51.150;21.620;2022-11-11T00:58:49;4.90;99.90
37276;DHT22;23166;51.150;21.620;2022-11-11T01:01:16;4.80;99.90
37276;DHT22;23166;51.150;21.620;2022-11-11T01:03:42;4.80;99.90
37276;DHT22;23166;51.150;21.620;2022-11-11T01:06:11;4.80;99.90
37276;DHT22;23166;51.150;21.620;2022-11-11T01:08:38;4.80;99.90
37276;DHT22;23166;51.150;21.620;2022-11-11T01:11:16;4.80;99.90
37276;DHT22;23166;51.150;21.620;2022-11-11T01:13:34;4.80;99.90
37276;DHT22;23166;51.150;21.620;2022-11-11T01:16:06;4.80;99.90
37276;DHT22;23166;51.150;21.620;2022-11-11T01:18:33;4.80;99.90
37276;DHT22;23166;51.150;21.620;2022-11-11T01:21:07;4.80;99.90
37276;DHT22;23166;51.150;21.620;2022-11-11T01:23:37;4.80;99.90
37276;DHT22;23166;51.150;21.620;2022-11-11T01:28:51;4.80;99.90
37276;DHT22;23166;51.150;21.620;2022-11-11T01:31:20;4.70;99.90
37276;DHT22;23166;51.150;21.620;2022-11-11T01:33:47;4.70;99.90
37276;DHT22;23166;51.150;21.620;2022-11-11T01:36:20;4.60;99.90
37276;DHT22;23166;51.150;21.620;2022-11-11T01:38:49;4.60;99.90
37276;DHT22;23166;51.150;21.620;2022-11-11T01:41:19;4.60;99.90
37276;DHT22;23166;51.150;21.620;2022-11-11T01:43:59;4.50;99.90
37276;DHT22;23166;51.150;21.620;2022-11-11T01:46:35;4.40;99.90
37276;DHT22;23166;51.150;21.620;2022-11-11T01:54:35;4.30;99.90
37276;DHT22;23166;51.150;21.620;2022-11-11T01:57:21;4.30;99.90
37276;DHT22;23166;51.150;21.620;2022-11-11T01:59:49;4.20;99.90
37276;DHT22;23166;51.150;21.620;2022-11-11T02:02:20;4.20;99.90
37276;DHT22;23166;51.150;21.620;2022-11-11T02:04:47;4.10;99.90
37276;DHT22;23166;51.150;21.620;2022-11-11T02:07:33;4.00;99.90
37276;DHT22;23166;51.150;21.620;2022-11-11T02:10:02;4.00;99.90
37276;DHT22;23166;51.150;21.620;2022-11-11T02:12:29;4.00;99.90
37276;DHT22;23166;51.150;21.620;2022-11-11T02:15:14;4.10;99.90
37276;DHT22;23166;51.150;21.620;2022-11-11T02:17:40;4.20;99.90
37276;DHT22;23166;51.150;21.620;2022-11-11T02:20:09;4.30;99.90
37276;DHT22;23166;51.150;21.620;2022-11-11T02:25:31;4.60;99.90
37276;DHT22;23166;51.150;21.620;2022-11-11T02:28:01;4.70;99.90
37276;DHT22;23166;51.150;21.620;2022-11-11T02:30:28;4.80;99.90
37276;DHT22;23166;51.150;21.620;2022-11-11T02:32:55;4.90;99.90
37276;DHT22;23166;51.150;21.620;2022-11-11T02:35:30;4.80;99.90
37276;DHT22;23166;51.150;21.620;2022-11-11T02:37:57;4.80;99.90
37276;DHT22;23166;51.150;21.620;2022-11-11T02:40:32;4.70;99.90
37276;DHT22;23166;51.150;21.620;2022-11-11T02:43:00;4.70;99.90
37276;DHT22;23166;51.150;21.620;2022-11-11T02:45:26;4.60;99.90
37276;DHT22;23166;51.150;21.620;2022-11-11T02:47:53;4.50;99.90
37276;DHT22;23166;51.150;21.620;2022-11-11T02:50:19;4.40;99.90
37276;DHT22;23166;51.150;21.620;2022-11-11T02:52:45;4.30;99.90
37276;DHT22;23166;51.150;21.620;2022-11-11T02:55:12;4.30;99.90
37276;DHT22;23166;51.150;21.620;2022-11-11T02:57:39;4.30;99.90
37276;DHT22;23166;51.150;21.620;2022-11-11T03:00:06;4.40;99.90
37276;DHT22;23166;51.150;21.620;2022-11-11T03:02:32;4.50;99.90
37276;DHT22;23166;51.150;21.620;2022-11-11T03:04:59;4.50;99.90
37276;DHT22;23166;51.150;21.620;2022-11-11T03:07:25;4.50;99.90
37276;DHT22;23166;51.150;21.620;2022-11-11T03:09:52;4.60;99.90
37276;DHT22;23166;51.150;21.620;2022-11-11T03:12:18;4.70;99.90
37276;DHT22;23166;51.150;21.620;2022-11-11T03:14:44;4.80;99.90
37276;DHT22;23166;51.150;21.620;2022-11-11T03:17:11;4.90;99.90
37276;DHT22;23166;51.150;21.620;2022-11-11T03:19:55;5.00;99.90
37276;DHT22;23166;51.150;21.620;2022-11-11T03:22:24;5.10;99.90
37276;DHT22;23166;51.150;21.620;2022-11-11T03:24:50;5.10;99.90
37276;DHT22;23166;51.150;21.620;2022-11-11T03:27:35;5.30;99.90
37276;DHT22;23166;51.150;21.620;2022-11-11T03:30:01;5.30;99.90
37276;DHT22;23166;51.150;21.620;2022-11-11T03:32:27;5.50;99.90
37276;DHT22;23166;51.150;21.620;2022-11-11T03:34:54;5.60;99.90
37276;DHT22;23166;51.150;21.620;2022-11-11T03:37:20;5.60;99.90
37276;DHT22;23166;51.150;21.620;2022-11-11T03:39:52;5.70;99.90
37276;DHT22;23166;51.150;21.620;2022-11-11T03:42:19;5.70;99.90
37276;DHT22;23166;51.150;21.620;2022-11-11T03:44:45;5.70;99.90
37276;DHT22;23166;51.150;21.620;2022-11-11T03:47:12;5.70;99.90
37276;DHT22;23166;51.150;21.620;2022-11-11T03:49:40;5.80;99.90
37276;DHT22;23166;51.150;21.620;2022-11-11T03:52:07;5.70;99.90
37276;DHT22;23166;51.150;21.620;2022-11-11T03:54:33;5.80;99.90
37276;DHT22;23166;51.150;21.620;2022-11-11T03:56:59;5.80;99.90
37276;DHT22;23166;51.150;21.620;2022-11-11T03:59:44;5.80;99.90
37276;DHT22;23166;51.150;21.620;2022-11-11T04:02:12;5.80;99.90
37276;DHT22;23166;51.150;21.620;2022-11-11T04:04:57;5.80;99.90
37276;DHT22;23166;51.150;21.620;2022-11-11T04:07:42;5.80;99.90
37276;DHT22;23166;51.150;21.620;2022-11-11T04:10:28;5.70;99.90
37276;DHT22;23166;51.150;21.620;2022-11-11T04:12:56;5.70;99.90
37276;DHT22;23166;51.150;21.620;2022-11-11T04:15:42;5.60;99.90
37276;DHT22;23166;51.150;21.620;2022-11-11T04:18:27;5.60;99.90
37276;DHT22;23166;51.150;21.620;2022-11-11T04:21:12;5.50;99.90
37276;DHT22;23166;51.150;21.620;2022-11-11T04:23:56;5.40;99.90
37276;DHT22;23166;51.150;21.620;2022-11-11T04:26:23;5.30;99.90
37276;DHT22;23166;51.150;21.620;2022-11-11T04:28:49;5.20;99.90
37276;DHT22;23166;51.150;21.620;2022-11-11T04:31:34;5.20;99.90
37276;DHT22;23166;51.150;21.620;2022-11-11T04:34:00;5.10;99.90
37276;DHT22;23166;51.150;21.620;2022-11-11T04:36:27;5.10;99.90
37276;DHT22;23166;51.150;21.620;2022-11-11T04:38:53;5.10;99.90
37276;DHT22;23166;51.150;21.620;2022-11-11T04:41:38;5.10;99.90
37276;DHT22;23166;51.150;21.620;2022-11-11T04:44:04;5.10;99.90
37276;DHT22;23166;51.150;21.620;2022-11-11T04:46:49;5.20;99.90
37276;DHT22;23166;51.150;21.620;2022-11-11T04:49:16;5.20;99.90
37276;DHT22;23166;51.150;21.620;2022-11-11T04:51:42;5.20;99.90
37276;DHT22;23166;51.150;21.620;2022-11-11T04:54:27;5.20;99.90
37276;DHT22;23166;51.150;21.620;2022-11-11T04:56:53;5.20;99.90
37276;DHT22;23166;51.150;21.620;2022-11-11T04:59:19;5.30;99.90
37276;DHT22;23166;51.150;21.620;2022-11-11T05:01:46;5.40;99.90
37276;DHT22;23166;51.150;21.620;2022-11-11T05:04:31;5.40;99.90
37276;DHT22;23166;51.150;21.620;2022-11-11T05:06:57;5.50;99.90
37276;DHT22;23166;51.150;21.620;2022-11-11T05:09:42;5.60;99.90
37276;DHT22;23166;51.150;21.620;2022-11-11T05:12:08;5.60;99.90
37276;DHT22;23166;51.150;21.620;2022-11-11T05:14:35;5.70;99.90
37276;DHT22;23166;51.150;21.620;2022-11-11T05:17:20;5.80;99.90
37276;DHT22;23166;51.150;21.620;2022-11-11T05:20:05;5.90;99.90
37276;DHT22;23166;51.150;21.620;2022-11-11T05:22:50;6.00;99.90
37276;DHT22;23166;51.150;21.620;2022-11-11T05:25:16;6.00;99.90
37276;DHT22;23166;51.150;21.620;2022-11-11T05:27:56;6.10;99.90
37276;DHT22;23166;51.150;21.620;2022-11-11T05:30:24;6.10;99.90
37276;DHT22;23166;51.150;21.620;2022-11-11T05:32:52;6.10;99.90
37276;DHT22;23166;51.150;21.620;2022-11-11T05:35:19;6.20;99.90
37276;DHT22;23166;51.150;21.620;2022-11-11T05:37:45;6.20;99.90
37276;DHT22;23166;51.150;21.620;2022-11-11T05:40:13;6.20;99.90
37276;DHT22;23166;51.150;21.620;2022-11-11T05:42:41;6.20;99.90
37276;DHT22;23166;51.150;21.620;2022-11-11T05:45:09;6.30;99.90
37276;DHT22;23166;51.150;21.620;2022-11-11T05:47:35;6.20;99.90
37276;DHT22;23166;51.150;21.620;2022-11-11T05:50:02;6.30;99.90
37276;DHT22;23166;51.150;21.620;2022-11-11T05:52:28;6.20;99.90
37276;DHT22;23166;51.150;21.620;2022-11-11T05:54:55;6.20;99.90
37276;DHT22;23166;51.150;21.620;2022-11-11T05:57:21;6.20;99.90
37276;DHT22;23166;51.150;21.620;2022-11-11T05:59:48;6.20;99.90
37276;DHT22;23166;51.150;21.620;2022-11-11T06:02:14;6.30;99.90
37276;DHT22;23166;51.150;21.620;2022-11-11T06:04:42;6.30;99.90
37276;DHT22;23166;51.150;21.620;2022-11-11T06:07:08;6.40;99.90
37276;DHT22;23166;51.150;21.620;2022-11-11T06:09:35;6.50;99.90
37276;DHT22;23166;51.150;21.620;2022-11-11T06:12:01;6.60;99.90
37276;DHT22;23166;51.150;21.620;2022-11-11T06:14:28;6.60;99.90
37276;DHT22;23166;51.150;21.620;2022-11-11T06:16:54;6.70;99.90
37276;DHT22;23166;51.150;21.620;2022-11-11T06:19:20;6.70;99.90
37276;DHT22;23166;51.150;21.620;2022-11-11T06:21:47;6.70;99.90
37276;DHT22;23166;51.150;21.620;2022-11-11T06:24:20;6.80;99.90
37276;DHT22;23166;51.150;21.620;2022-11-11T06:26:46;6.80;99.90
37276;DHT22;23166;51.150;21.620;2022-11-11T06:29:12;6.80;99.90
37276;DHT22;23166;51.150;21.620;2022-11-11T06:31:39;6.80;99.90
37276;DHT22;23166;51.150;21.620;2022-11-11T06:34:05;6.90;99.90
37276;DHT22;23166;51.150;21.620;2022-11-11T06:36:31;7.00;99.90
37276;DHT22;23166;51.150;21.620;2022-11-11T06:38:58;7.10;99.90
37276;DHT22;23166;51.150;21.620;2022-11-11T06:41:25;7.20;99.90
37276;DHT22;23166;51.150;21.620;2022-11-11T06:43:51;7.30;99.90
37276;DHT22;23166;51.150;21.620;2022-11-11T06:46:24;7.40;99.90
37276;DHT22;23166;51.150;21.620;2022-11-11T06:48:51;7.40;99.90
37276;DHT22;23166;51.150;21.620;2022-11-11T06:51:17;7.40;99.90
37276;DHT22;23166;51.150;21.620;2022-11-11T06:53:44;7.40;99.90
37276;DHT22;23166;51.150;21.620;2022-11-11T06:56:10;7.40;99.90
37276;DHT22;23166;51.150;21.620;2022-11-11T06:58:38;7.40;99.90
37276;DHT22;23166;51.150;21.620;2022-11-11T07:01:05;7.40;99.90
37276;DHT22;23166;51.150;21.620;2022-11-11T07:03:32;7.40;99.90
37276;DHT22;23166;51.150;21.620;2022-11-11T07:06:03;7.50;99.90
37276;DHT22;23166;51.150;21.620;2022-11-11T07:08:30;7.60;99.90
37276;DHT22;23166;51.150;21.620;2022-11-11T07:10:56;7.70;99.90
37276;DHT22;23166;51.150;21.620;2022-11-11T07:13:23;7.90;99.90
37276;DHT22;23166;51.150;21.620;2022-11-11T07:15:49;8.10;99.90
37276;DHT22;23166;51.150;21.620;2022-11-11T07:18:16;8.30;99.90
37276;DHT22;23166;51.150;21.620;2022-11-11T07:20:42;8.40;99.90
37276;DHT22;23166;51.150;21.620;2022-11-11T07:23:08;8.50;99.90
37276;DHT22;23166;51.150;21.620;2022-11-11T07:25:35;8.60;99.90
37276;DHT22;23166;51.150;21.620;2022-11-11T07:28:01;8.70;99.90
37276;DHT22;23166;51.150;21.620;2022-11-11T07:30:28;8.80;99.90
37276;DHT22;23166;51.150;21.620;2022-11-11T07:32:54;9.00;99.90
37276;DHT22;23166;51.150;21.620;2022-11-11T07:35:21;9.10;99.90
37276;DHT22;23166;51.150;21.620;2022-11-11T07:37:47;9.20;99.90
37276;DHT22;23166;51.150;21.620;2022-11-11T07:40:16;9.30;99.90
37276;DHT22;23166;51.150;21.620;2022-11-11T07:42:43;9.30;99.90
37276;DHT22;23166;51.150;21.620;2022-11-11T07:45:11;9.40;99.90
37276;DHT22;23166;51.150;21.620;2022-11-11T07:47:38;9.50;99.90
37276;DHT22;23166;51.150;21.620;2022-11-11T07:50:05;9.60;99.90
37276;DHT22;23166;51.150;21.620;2022-11-11T07:52:32;9.70;99.90
37276;DHT22;23166;51.150;21.620;2022-11-11T07:54:59;9.70;99.90
37276;DHT22;23166;51.150;21.620;2022-11-11T07:57:25;9.80;99.90
37276;DHT22;23166;51.150;21.620;2022-11-11T07:59:52;9.90;99.90
37276;DHT22;23166;51.150;21.620;2022-11-11T08:02:18;9.90;99.90
37276;DHT22;23166;51.150;21.620;2022-11-11T08:04:44;9.90;99.90
37276;DHT22;23166;51.150;21.620;2022-11-11T08:07:11;10.00;99.90
37276;DHT22;23166;51.150;21.620;2022-11-11T08:09:37;10.00;99.90
37276;DHT22;23166;51.150;21.620;2022-11-11T08:12:04;10.10;99.90
37276;DHT22;23166;51.150;21.620;2022-11-11T08:14:49;10.30;99.90
37276;DHT22;23166;51.150;21.620;2022-11-11T08:17:15;10.40;99.90
37276;DHT22;23166;51.150;21.620;2022-11-11T08:19:42;10.60;99.90
37276;DHT22;23166;51.150;21.620;2022-11-11T08:22:08;10.70;99.90
37276;DHT22;23166;51.150;21.620;2022-11-11T08:24:34;10.80;99.90
37276;DHT22;23166;51.150;21.620;2022-11-11T08:27:01;10.80;99.90
37276;DHT22;23166;51.150;21.620;2022-11-11T08:29:27;10.80;99.90
37276;DHT22;23166;51.150;21.620;2022-11-11T08:31:54;10.80;99.90
37276;DHT22;23166;51.150;21.620;2022-11-11T08:34:22;10.80;99.90
37276;DHT22;23166;51.150;21.620;2022-11-11T08:36:48;10.80;99.90
37276;DHT22;23166;51.150;21.620;2022-11-11T08:39:15;10.90;99.90
37276;DHT22;23166;51.150;21.620;2022-11-11T08:41:41;10.90;99.90
37276;DHT22;23166;51.150;21.620;2022-11-11T08:44:08;11.00;99.90
37276;DHT22;23166;51.150;21.620;2022-11-11T08:46:35;11.00;99.90
37276;DHT22;23166;51.150;21.620;2022-11-11T08:49:01;11.00;99.90
37276;DHT22;23166;51.150;21.620;2022-11-11T08:51:27;11.00;99.90
37276;DHT22;23166;51.150;21.620;2022-11-11T08:53:54;11.00;99.90
37276;DHT22;23166;51.150;21.620;2022-11-11T08:56:20;11.10;99.90
37276;DHT22;23166;51.150;21.620;2022-11-11T08:58:46;11.00;99.90
37276;DHT22;23166;51.150;21.620;2022-11-11T09:01:13;11.10;99.90
37276;DHT22;23166;51.150;21.620;2022-11-11T09:03:41;11.10;99.90
37276;DHT22;23166;51.150;21.620;2022-11-11T09:06:10;11.20;99.90
37276;DHT22;23166;51.150;21.620;2022-11-11T09:08:36;11.20;99.90
37276;DHT22;23166;51.150;21.620;2022-11-11T09:11:03;11.30;99.90
37276;DHT22;23166;51.150;21.620;2022-11-11T09:13:29;11.30;99.90
37276;DHT22;23166;51.150;21.620;2022-11-11T09:15:55;11.40;99.90
37276;DHT22;23166;51.150;21.620;2022-11-11T09:18:22;11.40;99.90
37276;DHT22;23166;51.150;21.620;2022-11-11T09:20:49;11.50;99.90
37276;DHT22;23166;51.150;21.620;2022-11-11T09:23:15;11.60;99.90
37276;DHT22;23166;51.150;21.620;2022-11-11T09:25:41;11.70;99.90
37276;DHT22;23166;51.150;21.620;2022-11-11T09:28:08;11.80;99.90
37276;DHT22;23166;51.150;21.620;2022-11-11T09:30:34;11.80;99.90
37276;DHT22;23166;51.150;21.620;2022-11-11T09:33:04;11.90;99.90
37276;DHT22;23166;51.150;21.620;2022-11-11T09:35:30;12.10;99.90
37276;DHT22;23166;51.150;21.620;2022-11-11T09:37:59;12.20;99.90
37276;DHT22;23166;51.150;21.620;2022-11-11T09:40:48;12.20;99.90
37276;DHT22;23166;51.150;21.620;2022-11-11T09:46:13;12.40;99.90
37276;DHT22;23166;51.150;21.620;2022-11-11T09:51:23;12.70;99.90
37276;DHT22;23166;51.150;21.620;2022-11-11T09:53:53;12.80;99.90
37276;DHT22;23166;51.150;21.620;2022-11-11T09:56:22;12.90;99.90
37276;DHT22;23166;51.150;21.620;2022-11-11T09:58:57;12.80;99.90
37276;DHT22;23166;51.150;21.620;2022-11-11T10:01:25;12.80;98.40
37276;DHT22;23166;51.150;21.620;2022-11-11T10:06:35;12.80;99.90
37276;DHT22;23166;51.150;21.620;2022-11-11T10:09:06;12.80;99.90
37276;DHT22;23166;51.150;21.620;2022-11-11T10:14:12;12.90;98.30
37276;DHT22;23166;51.150;21.620;2022-11-11T10:17:00;13.00;93.20
37276;DHT22;23166;51.150;21.620;2022-11-11T10:19:29;13.10;97.10
37276;DHT22;23166;51.150;21.620;2022-11-11T10:27:32;13.40;90.10
37276;DHT22;23166;51.150;21.620;2022-11-11T10:30:07;13.50;93.40
37276;DHT22;23166;51.150;21.620;2022-11-11T10:32:32;13.50;50.90
37276;DHT22;23166;51.150;21.620;2022-11-11T10:37:45;13.50;76.60
37276;DHT22;23166;51.150;21.620;2022-11-11T10:42:45;13.70;41.30
37276;DHT22;23166;51.150;21.620;2022-11-11T10:45:24;13.70;81.30
37276;DHT22;23166;51.150;21.620;2022-11-11T10:47:55;13.80;77.90
37276;DHT22;23166;51.150;21.620;2022-11-11T10:50:30;13.80;50.50
37276;DHT22;23166;51.150;21.620;2022-11-11T10:56:12;13.80;48.80
37276;DHT22;23166;51.150;21.620;2022-11-11T11:01:08;13.80;55.60
37276;DHT22;23166;51.150;21.620;2022-11-11T11:03:41;13.80;54.00
37276;DHT22;23166;51.150;21.620;2022-11-11T11:08:54;13.80;71.00
37276;DHT22;23166;51.150;21.620;2022-11-11T11:11:45;13.80;74.60
37276;DHT22;23166;51.150;21.620;2022-11-11T11:14:14;13.90;65.00
37276;DHT22;23166;51.150;21.620;2022-11-11T11:16:41;13.80;43.00
37276;DHT22;23166;51.150;21.620;2022-11-11T11:19:24;13.80;23.50
37276;DHT22;23166;51.150;21.620;2022-11-11T11:21:55;13.70;77.70
37276;DHT22;23166;51.150;21.620;2022-11-11T11:24:34;13.70;69.80
37276;DHT22;23166;51.150;21.620;2022-11-11T11:27:04;13.70;72.90
37276;DHT22;23166;51.150;21.620;2022-11-11T11:29:38;13.70;66.00
37276;DHT22;23166;51.150;21.620;2022-11-11T11:32:16;13.70;66.90
37276;DHT22;23166;51.150;21.620;2022-11-11T11:34:51;13.70;89.80
37276;DHT22;23166;51.150;21.620;2022-11-11T11:37:21;13.70;70.00
37276;DHT22;23166;51.150;21.620;2022-11-11T11:39:48;13.60;46.30
37276;DHT22;23166;51.150;21.620;2022-11-11T11:42:35;13.50;39.50
37276;DHT22;23166;51.150;21.620;2022-11-11T11:45:23;13.40;63.90
37276;DHT22;23166;51.150;21.620;2022-11-11T11:51:08;13.40;88.70
37276;DHT22;23166;51.150;21.620;2022-11-11T11:56:14;13.50;66.60
37276;DHT22;23166;51.150;21.620;2022-11-11T12:01:48;13.60;90.40
37276;DHT22;23166;51.150;21.620;2022-11-11T12:07:37;13.70;83.80
37276;DHT22;23166;51.150;21.620;2022-11-11T12:13:29;13.70;75.40
37276;DHT22;23166;51.150;21.620;2022-11-11T12:21:33;13.50;23.50
37276;DHT22;23166;51.150;21.620;2022-11-11T12:27:06;13.40;80.90
37276;DHT22;23166;51.150;21.620;2022-11-11T12:29:15;13.40;90.30
37276;DHT22;23166;51.150;21.620;2022-11-11T12:59:45;13.10;30.00
37276;DHT22;23166;51.150;21.620;2022-11-11T13:11:13;12.90;28.70
37276;DHT22;23166;51.150;21.620;2022-11-11T13:13:45;12.80;31.40
37276;DHT22;23166;51.150;21.620;2022-11-11T13:16:09;12.80;41.70
37276;DHT22;23166;51.150;21.620;2022-11-11T13:18:50;12.70;79.00
37276;DHT22;23166;51.150;21.620;2022-11-11T13:21:21;12.70;82.60
37276;DHT22;23166;51.150;21.620;2022-11-11T13:23:48;12.70;87.90
37276;DHT22;23166;51.150;21.620;2022-11-11T13:26:30;12.70;91.50
37276;DHT22;23166;51.150;21.620;2022-11-11T13:31:53;12.60;89.40
